createdAt,value
2018-03-20T00:02:08.380Z,90.30
2018-03-20T00:04:35.836Z,90.80
2018-03-20T00:07:03.297Z,91.80
2018-03-20T00:09:30.764Z,93.10
2018-03-20T00:11:58.228Z,93.50
2018-03-20T00:14:25.719Z,93.50
2018-03-20T00:16:53.423Z,94.10
2018-03-20T00:19:20.885Z,94.60
2018-03-20T00:21:48.358Z,96.30
2018-03-20T00:24:16.064Z,95.90
2018-03-20T00:26:44.496Z,95.10
2018-03-20T00:29:11.952Z,95.20
2018-03-20T00:31:39.415Z,94.40
2018-03-20T00:34:07.092Z,95.00
2018-03-20T00:36:34.552Z,95.00
2018-03-20T00:39:02.095Z,95.10
2018-03-20T00:41:29.855Z,95.90
2018-03-20T00:43:57.320Z,96.80
2018-03-20T00:46:25.085Z,96.40
2018-03-20T00:48:52.848Z,97.10
2018-03-20T00:51:20.310Z,97.90
2018-03-20T00:53:47.790Z,98.00
2018-03-20T00:56:15.248Z,96.80
2018-03-20T00:58:42.892Z,96.60
2018-03-20T01:01:10.500Z,96.50
2018-03-20T01:03:38.202Z,96.90
2018-03-20T01:06:05.664Z,96.90
2018-03-20T01:08:33.128Z,96.20
2018-03-20T01:11:00.883Z,97.20
2018-03-20T01:13:28.652Z,97.00
2018-03-20T01:15:56.112Z,97.80
2018-03-20T01:18:23.804Z,98.70
2018-03-20T01:20:51.333Z,99.00
2018-03-20T01:23:18.789Z,99.00
2018-03-20T01:25:46.555Z,99.90
2018-03-20T01:28:14.019Z,99.90
2018-03-20T01:30:41.775Z,99.80
2018-03-20T01:33:09.551Z,99.40
2018-03-20T01:35:37.004Z,99.90
2018-03-20T01:38:04.471Z,98.90
2018-03-20T01:40:32.139Z,97.60
2018-03-20T01:42:59.595Z,98.10
2018-03-20T01:45:27.139Z,99.00
2018-03-20T01:47:54.607Z,98.30
2018-03-20T01:50:22.117Z,98.60
2018-03-20T01:53:01.498Z,98.50
2018-03-20T01:55:28.960Z,97.90
2018-03-20T01:57:56.635Z,97.60
2018-03-20T02:00:24.100Z,97.60
2018-03-20T02:02:52.335Z,97.00
2018-03-20T02:05:19.791Z,97.00
2018-03-20T02:07:47.250Z,96.90
2018-03-20T02:10:14.936Z,96.80
2018-03-20T02:12:42.397Z,96.90
2018-03-20T02:15:10.072Z,96.80
2018-03-20T02:17:37.739Z,96.60
2018-03-20T02:20:05.971Z,97.30
2018-03-20T02:22:33.453Z,97.30
2018-03-20T02:25:01.135Z,97.70
2018-03-20T02:27:28.588Z,97.70
2018-03-20T02:29:56.128Z,97.60
2018-03-20T02:32:23.587Z,97.50
2018-03-20T02:34:51.043Z,97.10
2018-03-20T02:37:18.520Z,97.40
2018-03-20T02:39:46.268Z,97.70
2018-03-20T02:42:13.753Z,97.40
2018-03-20T02:44:41.210Z,97.80
2018-03-20T02:47:08.667Z,97.70
2018-03-20T02:49:36.410Z,97.90
2018-03-20T02:52:04.784Z,99.60
2018-03-20T02:54:32.549Z,99.60
2018-03-20T02:57:00.322Z,99.40
2018-03-20T02:59:28.080Z,99.90
2018-03-20T03:01:55.844Z,99.90
2018-03-20T03:04:23.329Z,99.90
2018-03-20T03:06:50.797Z,99.90
2018-03-20T03:09:18.296Z,99.90
2018-03-20T03:11:45.908Z,99.90
2018-03-20T03:14:13.441Z,99.90
2018-03-20T03:16:41.258Z,99.90
2018-03-20T03:19:08.671Z,99.90
2018-03-20T03:21:36.429Z,99.90
2018-03-20T03:24:03.904Z,99.90
2018-03-20T03:26:31.355Z,99.90
2018-03-20T03:28:58.808Z,99.90
2018-03-20T03:31:26.568Z,99.90
2018-03-20T03:33:54.032Z,99.90
2018-03-20T03:36:21.715Z,99.90
2018-03-20T03:38:49.175Z,99.90
2018-03-20T03:41:17.628Z,99.90
2018-03-20T03:43:45.392Z,99.90
2018-03-20T03:46:13.160Z,99.90
2018-03-20T03:48:40.616Z,99.90
2018-03-20T03:51:08.086Z,99.90
2018-03-20T03:53:35.821Z,99.90
2018-03-20T03:56:03.283Z,99.90
2018-03-20T03:58:30.740Z,99.90
2018-03-20T04:00:58.525Z,99.90
2018-03-20T04:03:26.224Z,99.90
2018-03-20T04:05:53.904Z,99.90
2018-03-20T04:08:21.517Z,99.90
2018-03-20T04:10:49.081Z,99.90
2018-03-20T04:13:16.731Z,99.90
2018-03-20T04:15:44.188Z,99.90
2018-03-20T04:18:11.705Z,99.90
2018-03-20T04:20:39.123Z,99.90
2018-03-20T04:23:06.805Z,99.90
2018-03-20T04:25:34.261Z,99.90
2018-03-20T04:28:02.489Z,99.90
2018-03-20T04:30:29.951Z,99.90
2018-03-20T04:32:57.627Z,99.90
2018-03-20T04:35:25.079Z,99.90
2018-03-20T04:37:52.548Z,99.90
2018-03-20T04:40:20.280Z,99.90
2018-03-20T04:42:47.767Z,99.90
2018-03-20T04:45:15.220Z,99.90
2018-03-20T04:47:42.679Z,99.90
2018-03-20T04:50:10.147Z,99.90
2018-03-20T04:52:37.607Z,99.90
2018-03-20T04:55:05.355Z,99.90
2018-03-20T04:57:32.828Z,99.90
2018-03-20T05:00:00.283Z,99.90
2018-03-20T05:02:28.098Z,99.90
2018-03-20T05:04:55.511Z,99.90
2018-03-20T05:07:22.972Z,99.90
2018-03-20T05:09:50.719Z,99.90
2018-03-20T05:12:18.177Z,99.90
2018-03-20T05:14:45.645Z,99.90
2018-03-20T05:17:13.311Z,99.90
2018-03-20T05:19:58.577Z,99.90
2018-03-20T05:22:42.721Z,99.90
2018-03-20T05:25:10.189Z,99.90
2018-03-20T05:27:37.860Z,99.90
2018-03-20T05:30:05.315Z,99.90
2018-03-20T05:32:32.783Z,99.90
2018-03-20T05:35:00.245Z,99.90
2018-03-20T05:37:27.702Z,99.90
2018-03-20T05:39:55.176Z,99.90
2018-03-20T05:42:22.851Z,99.90
2018-03-20T05:44:50.303Z,99.90
2018-03-20T05:47:32.272Z,99.90
2018-03-20T05:50:05.284Z,99.90
2018-03-20T05:52:32.958Z,99.90
2018-03-20T05:55:00.518Z,99.90
2018-03-20T05:57:27.967Z,99.90
2018-03-20T05:59:55.429Z,99.90
2018-03-20T06:02:22.899Z,99.90
2018-03-20T06:04:50.357Z,99.90
2018-03-20T06:07:17.861Z,99.90
2018-03-20T06:09:45.620Z,99.90
2018-03-20T06:12:13.091Z,99.90
2018-03-20T06:14:40.627Z,99.90
2018-03-20T06:17:08.300Z,99.90
2018-03-20T06:19:35.771Z,99.90
2018-03-20T06:22:03.527Z,99.90
2018-03-20T06:24:31.204Z,99.90
2018-03-20T06:26:58.830Z,99.90
2018-03-20T06:29:26.282Z,99.90
2018-03-20T06:31:53.888Z,99.90
2018-03-20T06:34:21.431Z,99.90
2018-03-20T06:36:48.908Z,99.90
2018-03-20T06:39:16.569Z,99.90
2018-03-20T06:41:44.027Z,99.90
2018-03-20T06:44:11.724Z,99.90
2018-03-20T06:46:39.243Z,99.90
2018-03-20T06:49:06.704Z,99.90
2018-03-20T06:51:34.281Z,99.90
2018-03-20T06:54:01.739Z,99.90
2018-03-20T06:56:29.255Z,99.90
2018-03-20T06:58:56.929Z,99.90
2018-03-20T07:01:24.392Z,99.90
2018-03-20T07:03:51.848Z,99.90
2018-03-20T07:06:19.614Z,99.90
2018-03-20T07:08:47.068Z,99.90
2018-03-20T07:11:14.828Z,99.90
2018-03-20T07:13:42.287Z,99.90
2018-03-20T07:16:10.052Z,99.90
2018-03-20T07:18:37.553Z,99.90
2018-03-20T07:21:05.188Z,99.90
2018-03-20T07:23:32.650Z,99.90
2018-03-20T07:26:00.206Z,99.90
2018-03-20T07:28:27.746Z,99.90
2018-03-20T07:30:55.414Z,99.90
2018-03-20T07:33:22.879Z,99.90
2018-03-20T07:35:50.336Z,99.90
2018-03-20T07:38:17.788Z,99.90
2018-03-20T07:40:45.556Z,99.90
2018-03-20T07:43:13.022Z,99.90
2018-03-20T07:45:40.693Z,99.90
2018-03-20T07:48:08.236Z,99.90
2018-03-20T07:50:35.713Z,99.90
2018-03-20T07:53:03.164Z,99.90
2018-03-20T07:55:30.620Z,99.90
2018-03-20T07:57:58.135Z,99.90
2018-03-20T08:00:25.599Z,99.90
2018-03-20T08:02:53.284Z,99.90
2018-03-20T08:05:20.748Z,99.90
2018-03-20T08:07:48.397Z,99.90
2018-03-20T08:10:15.883Z,99.90
2018-03-20T08:12:43.343Z,99.90
2018-03-20T08:15:10.896Z,99.90
2018-03-20T08:17:38.648Z,99.90
2018-03-20T08:20:06.420Z,99.90
2018-03-20T08:22:33.876Z,99.90
2018-03-20T08:25:01.634Z,99.90
2018-03-20T08:27:29.211Z,99.90
2018-03-20T08:29:56.864Z,99.90
2018-03-20T08:32:24.320Z,99.90
2018-03-20T08:34:52.079Z,99.90
2018-03-20T08:37:19.551Z,99.90
2018-03-20T08:39:47.212Z,99.90
2018-03-20T08:42:14.761Z,99.90
2018-03-20T08:44:42.224Z,99.90
2018-03-20T08:47:09.684Z,99.90
2018-03-20T08:49:37.395Z,99.90
2018-03-20T08:52:04.908Z,99.90
2018-03-20T08:54:32.359Z,99.90
2018-03-20T08:56:59.815Z,99.90
2018-03-20T08:59:28.778Z,99.90
2018-03-20T09:01:56.231Z,99.90
2018-03-20T09:04:23.728Z,99.90
2018-03-20T09:06:51.180Z,99.90
2018-03-20T09:09:18.645Z,99.90
2018-03-20T09:11:46.409Z,99.90
2018-03-20T09:14:14.172Z,99.90
2018-03-20T09:16:41.632Z,99.90
2018-03-20T09:19:09.084Z,99.90
2018-03-20T09:21:36.543Z,99.90
2018-03-20T09:24:04.312Z,99.90
2018-03-20T09:26:31.779Z,99.90
2018-03-20T09:28:59.227Z,99.90
2018-03-20T09:31:26.994Z,99.90
2018-03-20T09:33:54.476Z,99.90
2018-03-20T09:36:22.269Z,95.70
2018-03-20T09:38:50.112Z,91.60
2018-03-20T09:41:18.326Z,86.30
2018-03-20T09:43:45.866Z,86.20
2018-03-20T09:46:13.586Z,82.50
2018-03-20T09:48:41.344Z,78.50
2018-03-20T09:51:08.804Z,75.00
2018-03-20T09:53:36.267Z,67.90
2018-03-20T09:56:05.257Z,64.40
2018-03-20T09:58:32.907Z,64.20
2018-03-20T10:01:00.396Z,62.00
2018-03-20T10:03:27.936Z,59.90
2018-03-20T10:05:55.616Z,57.90
2018-03-20T10:08:23.071Z,61.60
2018-03-20T10:10:51.467Z,57.80
2018-03-20T10:13:18.928Z,57.80
2018-03-20T10:15:46.384Z,56.30
2018-03-20T10:18:13.840Z,56.10
2018-03-20T10:20:41.301Z,55.60
2018-03-20T10:23:08.765Z,54.20
2018-03-20T10:25:36.296Z,51.60
2018-03-20T10:28:05.439Z,50.80
2018-03-20T10:30:33.052Z,50.70
2018-03-20T10:33:02.008Z,50.00
2018-03-20T10:35:29.505Z,50.00
2018-03-20T10:37:58.476Z,50.30
2018-03-20T10:40:25.948Z,50.30
2018-03-20T10:42:54.947Z,46.40
2018-03-20T10:45:23.920Z,47.70
2018-03-20T10:47:51.477Z,47.70
2018-03-20T10:50:18.927Z,46.10
2018-03-20T10:52:46.570Z,45.70
2018-03-20T10:55:14.080Z,44.00
2018-03-20T10:57:41.539Z,44.30
2018-03-20T11:00:09.304Z,43.50
2018-03-20T11:02:36.831Z,43.40
2018-03-20T11:05:04.380Z,41.60
2018-03-20T11:07:31.846Z,41.80
2018-03-20T11:09:59.296Z,39.60
2018-03-20T11:12:26.824Z,40.40
2018-03-20T11:14:54.312Z,38.80
2018-03-20T11:17:21.768Z,38.90
2018-03-20T11:19:49.228Z,38.60
2018-03-20T11:22:16.732Z,39.30
2018-03-20T11:24:44.224Z,38.10
2018-03-20T11:27:11.656Z,37.60
2018-03-20T11:29:39.120Z,35.40
2018-03-20T11:32:06.874Z,35.10
2018-03-20T11:34:34.660Z,34.20
2018-03-20T11:37:02.886Z,33.40
2018-03-20T11:39:30.423Z,33.40
2018-03-20T11:41:57.976Z,32.80
2018-03-20T11:44:25.544Z,33.10
2018-03-20T11:46:53.164Z,34.00
2018-03-20T11:49:20.627Z,33.70
2018-03-20T11:51:48.104Z,32.60
2018-03-20T11:54:15.592Z,33.80
2018-03-20T11:56:43.292Z,32.70
2018-03-20T11:59:10.744Z,32.00
2018-03-20T12:01:38.216Z,32.00
2018-03-20T12:04:05.681Z,32.50
2018-03-20T12:06:33.282Z,31.20
2018-03-20T12:09:11.700Z,30.60
2018-03-20T12:11:39.408Z,30.50
2018-03-20T12:14:07.178Z,30.80
2018-03-20T12:16:36.059Z,31.90
2018-03-20T12:19:04.154Z,30.70
2018-03-20T12:21:33.136Z,30.00
2018-03-20T12:24:00.909Z,30.20
2018-03-20T12:26:28.712Z,29.10
2018-03-20T12:29:16.713Z,29.10
2018-03-20T12:32:10.383Z,28.40
2018-03-20T12:34:38.058Z,29.00
2018-03-20T12:37:05.879Z,28.80
2018-03-20T12:39:33.343Z,29.00
2018-03-20T12:42:00.807Z,28.10
2018-03-20T12:44:28.284Z,29.00
2018-03-20T12:46:56.039Z,29.10
2018-03-20T12:49:23.496Z,29.40
2018-03-20T12:51:50.956Z,29.80
2018-03-20T12:54:18.407Z,29.10
2018-03-20T12:56:45.885Z,28.50
2018-03-20T12:59:13.634Z,28.80
2018-03-20T13:01:41.097Z,28.80
2018-03-20T13:04:08.885Z,28.80
2018-03-20T13:06:36.555Z,28.70
2018-03-20T13:09:04.035Z,29.40
2018-03-20T13:11:31.539Z,28.70
2018-03-20T13:13:58.992Z,28.80
2018-03-20T13:16:26.469Z,29.00
2018-03-20T13:18:54.221Z,29.20
2018-03-20T13:21:21.681Z,29.60
2018-03-20T13:23:49.165Z,29.40
2018-03-20T13:26:16.847Z,28.40
2018-03-20T13:28:44.302Z,27.90
2018-03-20T13:31:11.781Z,28.50
2018-03-20T13:33:39.296Z,29.00
2018-03-20T13:36:06.759Z,28.70
2018-03-20T13:38:34.253Z,29.40
2018-03-20T13:41:01.897Z,28.50
2018-03-20T13:43:29.359Z,28.70
2018-03-20T13:45:56.877Z,28.60
2018-03-20T13:48:24.396Z,28.50
2018-03-20T13:50:52.700Z,27.40
2018-03-20T13:53:23.347Z,27.70
2018-03-20T13:55:50.813Z,28.40
2018-03-20T13:58:19.084Z,28.30
2018-03-20T14:00:46.567Z,27.80
2018-03-20T14:03:14.230Z,28.10
2018-03-20T14:05:41.775Z,29.40
2018-03-20T14:08:09.228Z,28.70
2018-03-20T14:10:36.913Z,28.70
2018-03-20T14:13:04.459Z,27.40
2018-03-20T14:15:31.937Z,28.20
2018-03-20T14:17:59.408Z,26.70
2018-03-20T14:20:27.055Z,27.50
2018-03-20T14:22:54.699Z,28.00
2018-03-20T14:25:22.152Z,28.00
2018-03-20T14:27:49.735Z,28.10
2018-03-20T14:30:17.282Z,27.10
2018-03-20T14:32:44.959Z,27.70
2018-03-20T14:35:12.499Z,29.10
2018-03-20T14:37:40.772Z,30.80
2018-03-20T14:40:08.250Z,30.80
2018-03-20T14:42:35.737Z,32.60
2018-03-20T14:45:03.241Z,32.40
2018-03-20T14:47:30.711Z,29.70
2018-03-20T14:49:58.244Z,30.20
2018-03-20T14:52:25.728Z,31.10
2018-03-20T14:54:53.393Z,31.90
2018-03-20T14:57:21.060Z,32.40
2018-03-20T14:59:48.532Z,32.40
2018-03-20T15:02:15.996Z,32.00
2018-03-20T15:04:43.456Z,33.80
2018-03-20T15:07:10.929Z,33.40
2018-03-20T15:09:38.394Z,34.10
2018-03-20T15:12:05.887Z,34.30
2018-03-20T15:14:33.376Z,34.00
2018-03-20T15:17:00.844Z,32.00
2018-03-20T15:19:28.575Z,30.90
2018-03-20T15:21:56.032Z,30.90
2018-03-20T15:24:23.504Z,31.50
2018-03-20T15:26:51.175Z,31.90
2018-03-20T15:29:18.724Z,30.90
2018-03-20T15:31:46.180Z,30.80
2018-03-20T15:34:13.640Z,31.60
2018-03-20T15:36:41.320Z,31.20
2018-03-20T15:39:08.788Z,30.90
2018-03-20T15:41:36.468Z,30.70
2018-03-20T15:44:03.920Z,30.20
2018-03-20T15:46:31.539Z,29.60
2018-03-20T15:48:59.883Z,30.40
2018-03-20T15:51:27.373Z,30.40
2018-03-20T15:53:54.847Z,30.60
2018-03-20T15:56:22.446Z,30.90
2018-03-20T15:58:49.913Z,31.40
2018-03-20T16:01:17.404Z,31.60
2018-03-20T16:03:44.914Z,31.20
2018-03-20T16:06:12.432Z,31.20
2018-03-20T16:08:39.884Z,31.70
2018-03-20T16:11:07.344Z,32.50
2018-03-20T16:13:34.868Z,32.80
2018-03-20T16:16:02.501Z,31.20
2018-03-20T16:18:30.063Z,31.30
2018-03-20T16:20:57.567Z,30.00
2018-03-20T16:23:25.048Z,29.70
2018-03-20T16:25:52.530Z,29.50
2018-03-20T16:28:21.036Z,29.90
2018-03-20T16:30:48.548Z,29.90
2018-03-20T16:33:16.012Z,30.50
2018-03-20T16:35:43.688Z,31.60
2018-03-20T16:38:11.176Z,32.20
2018-03-20T16:40:38.694Z,32.90
2018-03-20T16:43:06.172Z,34.00
2018-03-20T16:45:33.688Z,33.60
2018-03-20T16:48:01.325Z,33.70
2018-03-20T16:50:28.859Z,33.60
2018-03-20T16:52:56.583Z,34.50
2018-03-20T16:55:24.053Z,35.00
2018-03-20T16:57:51.600Z,34.60
2018-03-20T17:00:19.235Z,35.50
2018-03-20T17:02:46.740Z,34.90
2018-03-20T17:05:14.220Z,35.60
2018-03-20T17:07:41.957Z,35.60
2018-03-20T17:10:09.734Z,36.30
2018-03-20T17:12:37.360Z,36.90
2018-03-20T17:15:04.936Z,37.30
2018-03-20T17:17:32.424Z,38.40
2018-03-20T17:19:59.866Z,38.40
2018-03-20T17:22:27.620Z,38.70
2018-03-20T17:24:55.118Z,39.40
2018-03-20T17:27:22.848Z,40.20
2018-03-20T17:29:50.340Z,40.50
2018-03-20T17:32:18.127Z,40.70
2018-03-20T17:34:45.586Z,40.50
2018-03-20T17:37:13.241Z,40.70
2018-03-20T17:39:40.751Z,40.60
2018-03-20T17:42:08.513Z,42.00
2018-03-20T17:44:36.287Z,41.60
2018-03-20T17:47:03.960Z,42.50
2018-03-20T17:49:31.451Z,42.90
2018-03-20T17:51:58.915Z,43.40
2018-03-20T17:54:26.392Z,43.10
2018-03-20T17:56:53.900Z,43.30
2018-03-20T17:59:21.428Z,43.80
2018-03-20T18:01:49.015Z,43.90
2018-03-20T18:04:16.556Z,43.90
2018-03-20T18:06:44.015Z,45.00
2018-03-20T18:09:11.490Z,44.60
2018-03-20T18:11:38.939Z,45.20
2018-03-20T18:14:06.458Z,44.90
2018-03-20T18:16:34.003Z,45.40
2018-03-20T18:19:01.476Z,45.70
2018-03-20T18:21:29.006Z,45.60
2018-03-20T18:23:56.681Z,46.10
2018-03-20T18:26:24.123Z,46.30
2018-03-20T18:28:51.673Z,46.50
2018-03-20T18:31:19.171Z,46.80
2018-03-20T18:33:46.637Z,47.00
2018-03-20T18:36:14.080Z,47.40
2018-03-20T18:38:41.737Z,47.90
2018-03-20T18:41:09.346Z,47.60
2018-03-20T18:43:36.800Z,48.50
2018-03-20T18:46:04.318Z,49.90
2018-03-20T18:48:31.780Z,50.20
2018-03-20T18:50:59.388Z,51.00
2018-03-20T18:53:26.944Z,51.60
2018-03-20T18:55:54.419Z,52.10
2018-03-20T18:58:22.068Z,53.00
2018-03-20T19:00:49.720Z,53.50
2018-03-20T19:03:17.240Z,54.20
2018-03-20T19:05:44.751Z,54.00
2018-03-20T19:08:13.144Z,54.70
2018-03-20T19:10:40.665Z,54.70
2018-03-20T19:13:08.143Z,54.80
2018-03-20T19:15:35.904Z,55.10
2018-03-20T19:18:03.676Z,55.00
2018-03-20T19:20:31.431Z,55.70
2018-03-20T19:22:59.087Z,55.50
2018-03-20T19:25:26.659Z,56.50
2018-03-20T19:27:54.124Z,56.20
2018-03-20T19:30:21.858Z,57.00
2018-03-20T19:32:49.336Z,57.00
2018-03-20T19:35:16.796Z,57.70
2018-03-20T19:37:44.253Z,57.60
2018-03-20T19:40:11.712Z,58.40
2018-03-20T19:42:39.480Z,58.90
2018-03-20T19:45:06.936Z,58.80
2018-03-20T19:47:34.395Z,59.00
2018-03-20T19:50:01.861Z,59.20
2018-03-20T19:52:29.309Z,59.50
2018-03-20T19:54:56.760Z,59.50
2018-03-20T19:57:24.421Z,60.30
2018-03-20T19:59:51.873Z,60.80
2018-03-20T20:02:19.432Z,60.40
2018-03-20T20:04:46.887Z,61.00
2018-03-20T20:07:14.373Z,61.30
2018-03-20T20:09:41.809Z,62.40
2018-03-20T20:12:09.592Z,62.10
2018-03-20T20:14:37.354Z,62.80
2018-03-20T20:17:04.811Z,62.60
2018-03-20T20:19:32.272Z,63.20
2018-03-20T20:21:59.800Z,63.50
2018-03-20T20:24:27.416Z,64.00
2018-03-20T20:26:54.865Z,64.10
2018-03-20T20:29:23.326Z,64.50
2018-03-20T20:31:50.780Z,64.50
2018-03-20T20:34:18.236Z,65.00
2018-03-20T20:36:45.691Z,65.80
2018-03-20T20:39:13.144Z,66.40
2018-03-20T20:41:40.616Z,67.20
2018-03-20T20:44:08.287Z,67.20
2018-03-20T20:46:35.760Z,68.40
2018-03-20T20:49:04.025Z,69.20
2018-03-20T20:51:31.679Z,69.20
2018-03-20T20:53:59.132Z,69.20
2018-03-20T20:56:26.583Z,69.30
2018-03-20T20:58:54.368Z,69.90
2018-03-20T21:01:21.887Z,70.00
2018-03-20T21:03:49.585Z,70.20
2018-03-20T21:06:17.045Z,71.20
2018-03-20T21:08:44.724Z,71.30
2018-03-20T21:11:12.176Z,72.40
2018-03-20T21:13:39.623Z,72.60
2018-03-20T21:16:07.179Z,72.70
2018-03-20T21:18:34.631Z,72.60
2018-03-20T21:21:02.400Z,73.30
2018-03-20T21:23:29.851Z,73.40
2018-03-20T21:25:57.626Z,72.90
2018-03-20T21:28:25.307Z,73.70
2018-03-20T21:30:53.534Z,75.00
2018-03-20T21:33:21.016Z,75.00
2018-03-20T21:35:48.522Z,75.90
2018-03-20T21:38:16.082Z,76.80
2018-03-20T21:40:43.600Z,77.10
2018-03-20T21:43:11.378Z,77.60
2018-03-20T21:45:38.823Z,79.20
2018-03-20T21:48:06.593Z,79.80
2018-03-20T21:50:34.051Z,79.90
2018-03-20T21:53:01.509Z,80.80
2018-03-20T21:55:29.203Z,80.20
2018-03-20T21:57:56.648Z,82.50
2018-03-20T22:00:24.101Z,82.70
2018-03-20T22:02:52.561Z,85.90
2018-03-20T22:05:21.520Z,87.90
2018-03-20T22:07:48.973Z,88.50
2018-03-20T22:10:16.434Z,89.10
2018-03-20T22:12:44.244Z,90.30
2018-03-20T22:15:11.932Z,91.20
2018-03-20T22:17:39.465Z,92.10
2018-03-20T22:20:06.925Z,93.20
2018-03-20T22:22:34.683Z,94.60
2018-03-20T22:25:02.144Z,95.90
2018-03-20T22:27:29.913Z,96.40
2018-03-20T22:29:57.676Z,97.80
2018-03-20T22:32:25.142Z,99.70
2018-03-20T22:34:52.592Z,99.90
2018-03-20T22:37:20.089Z,99.90
2018-03-20T22:39:47.815Z,99.90
2018-03-20T22:42:15.292Z,99.90
2018-03-20T22:44:42.944Z,99.90
2018-03-20T22:47:10.480Z,99.90
2018-03-20T22:49:37.953Z,99.90
2018-03-20T22:52:05.428Z,99.90
2018-03-20T22:54:32.880Z,99.90
2018-03-20T22:57:00.331Z,99.90
2018-03-20T22:59:27.800Z,99.90
2018-03-20T23:01:55.558Z,99.90
2018-03-20T23:04:23.024Z,99.90
2018-03-20T23:06:50.480Z,99.90
2018-03-20T23:09:17.934Z,99.90
2018-03-20T23:11:45.702Z,99.90
2018-03-20T23:14:13.160Z,99.90
2018-03-20T23:16:40.616Z,99.90
2018-03-20T23:19:08.076Z,99.90
2018-03-20T23:21:35.832Z,99.90
2018-03-20T23:24:03.594Z,99.90
2018-03-20T23:26:31.079Z,99.90
2018-03-20T23:28:58.523Z,99.90
2018-03-20T23:31:26.139Z,99.90
2018-03-20T23:33:53.601Z,99.90
2018-03-20T23:36:21.096Z,99.90
2018-03-20T23:38:48.549Z,99.90
2018-03-20T23:41:16.109Z,99.90
2018-03-20T23:43:43.561Z,99.90
2018-03-20T23:46:11.328Z,99.90
2018-03-20T23:48:38.788Z,99.90
2018-03-20T23:51:06.554Z,99.90
2018-03-20T23:53:34.139Z,99.90
2018-03-20T23:56:02.391Z,99.90
2018-03-20T23:58:30.700Z,99.90
